sensor_id;sensor_type;location;lat;lon;timestamp;pressure;altitude;pressure_sealevel;temperature;humidity
11223;BME280;5668;52.012;8.724;2023-01-10T00:00:13;99509.22;;;8.61;97.09
11223;BME280;5668;52.012;8.724;2023-01-10T00:02:40;99510.38;;;8.57;97.05
11223;BME280;5668;52.012;8.724;2023-01-10T00:05:08;99518.16;;;8.57;96.42
11223;BME280;5668;52.012;8.724;2023-01-10T00:07:35;99521.53;;;8.57;96.71
11223;BME280;5668;52.012;8.724;2023-01-10T00:10:02;99527.91;;;8.53;97.08
11223;BME280;5668;52.012;8.724;2023-01-10T00:12:31;99535.19;;;8.48;97.22
11223;BME280;5668;52.012;8.724;2023-01-10T00:15:16;99547.19;;;8.49;97.47
11223;BME280;5668;52.012;8.724;2023-01-10T00:17:43;99546.47;;;8.47;97.80
11223;BME280;5668;52.012;8.724;2023-01-10T00:20:11;99550.94;;;8.45;97.79
11223;BME280;5668;52.012;8.724;2023-01-10T00:22:39;99558.72;;;8.45;97.70
11223;BME280;5668;52.012;8.724;2023-01-10T00:25:07;99563.16;;;8.43;97.16
11223;BME280;5668;52.012;8.724;2023-01-10T00:27:35;99567.50;;;8.42;96.54
11223;BME280;5668;52.012;8.724;2023-01-10T00:30:03;99580.81;;;8.38;97.07
11223;BME280;5668;52.012;8.724;2023-01-10T00:32:39;99585.16;;;8.37;97.04
11223;BME280;5668;52.012;8.724;2023-01-10T00:35:07;99586.44;;;8.32;96.64
11223;BME280;5668;52.012;8.724;2023-01-10T00:37:36;99598.63;;;8.30;96.87
11223;BME280;5668;52.012;8.724;2023-01-10T00:40:05;99606.31;;;8.31;97.09
11223;BME280;5668;52.012;8.724;2023-01-10T00:42:37;99605.56;;;8.29;96.83
11223;BME280;5668;52.012;8.724;2023-01-10T00:45:22;99618.59;;;8.28;96.66
11223;BME280;5668;52.012;8.724;2023-01-10T00:47:51;99628.03;;;8.29;96.49
11223;BME280;5668;52.012;8.724;2023-01-10T00:50:19;99637.78;;;8.25;96.39
11223;BME280;5668;52.012;8.724;2023-01-10T00:52:46;99642.84;;;8.27;96.39
11223;BME280;5668;52.012;8.724;2023-01-10T00:55:14;99644.38;;;8.29;96.03
11223;BME280;5668;52.012;8.724;2023-01-10T00:57:42;99647.31;;;8.25;96.08
11223;BME280;5668;52.012;8.724;2023-01-10T01:00:10;99656.50;;;8.29;96.45
11223;BME280;5668;52.012;8.724;2023-01-10T01:02:38;99665.75;;;8.33;95.78
11223;BME280;5668;52.012;8.724;2023-01-10T01:05:05;99671.75;;;8.33;95.79
11223;BME280;5668;52.012;8.724;2023-01-10T01:07:33;99676.28;;;8.30;94.52
11223;BME280;5668;52.012;8.724;2023-01-10T01:10:00;99677.31;;;8.27;95.71
11223;BME280;5668;52.012;8.724;2023-01-10T01:12:46;99694.19;;;8.20;95.43
11223;BME280;5668;52.012;8.724;2023-01-10T01:15:13;99704.88;;;8.15;95.79
11223;BME280;5668;52.012;8.724;2023-01-10T01:17:41;99701.38;;;8.16;96.22
11223;BME280;5668;52.012;8.724;2023-01-10T01:20:09;99706.53;;;8.16;95.60
11223;BME280;5668;52.012;8.724;2023-01-10T01:22:36;99703.97;;;8.16;96.36
11223;BME280;5668;52.012;8.724;2023-01-10T01:25:04;99716.06;;;8.16;96.29
11223;BME280;5668;52.012;8.724;2023-01-10T01:27:32;99717.09;;;8.13;96.33
11223;BME280;5668;52.012;8.724;2023-01-10T01:30:01;99729.34;;;8.11;97.11
11223;BME280;5668;52.012;8.724;2023-01-10T01:32:28;99730.56;;;8.19;97.01
11223;BME280;5668;52.012;8.724;2023-01-10T01:34:55;99739.03;;;8.21;97.55
11223;BME280;5668;52.012;8.724;2023-01-10T01:37:22;99744.00;;;8.24;97.05
11223;BME280;5668;52.012;8.724;2023-01-10T01:39:50;99744.00;;;8.24;96.92
11223;BME280;5668;52.012;8.724;2023-01-10T01:42:22;99755.09;;;8.26;97.87
11223;BME280;5668;52.012;8.724;2023-01-10T01:48:01;99759.34;;;8.27;97.56
11223;BME280;5668;52.012;8.724;2023-01-10T01:50:33;99768.72;;;8.28;97.35
11223;BME280;5668;52.012;8.724;2023-01-10T01:53:04;99787.81;;;8.27;98.11
11223;BME280;5668;52.012;8.724;2023-01-10T01:55:35;99790.41;;;8.27;98.00
11223;BME280;5668;52.012;8.724;2023-01-10T01:58:06;99792.25;;;8.25;98.61
11223;BME280;5668;52.012;8.724;2023-01-10T02:00:34;99793.91;;;8.26;98.48
11223;BME280;5668;52.012;8.724;2023-01-10T02:03:05;99795.78;;;8.24;98.97
11223;BME280;5668;52.012;8.724;2023-01-10T02:05:34;99795.78;;;8.24;99.42
11223;BME280;5668;52.012;8.724;2023-01-10T02:08:03;99810.88;;;8.30;99.95
11223;BME280;5668;52.012;8.724;2023-01-10T02:10:35;99809.22;;;8.29;99.36
11223;BME280;5668;52.012;8.724;2023-01-10T02:13:06;99818.03;;;8.26;100.00
11223;BME280;5668;52.012;8.724;2023-01-10T02:15:35;99822.00;;;8.32;99.99
11223;BME280;5668;52.012;8.724;2023-01-10T02:18:03;99825.19;;;8.35;100.00
11223;BME280;5668;52.012;8.724;2023-01-10T02:20:39;99820.13;;;8.34;99.50
11223;BME280;5668;52.012;8.724;2023-01-10T02:23:32;99821.22;;;8.30;99.71
11223;BME280;5668;52.012;8.724;2023-01-10T02:26:44;99824.75;;;8.29;99.75
11223;BME280;5668;52.012;8.724;2023-01-10T02:29:33;99832.41;;;8.30;100.00
11223;BME280;5668;52.012;8.724;2023-01-10T02:32:19;99832.59;;;8.27;100.00
11223;BME280;5668;52.012;8.724;2023-01-10T02:34:59;99840.59;;;8.24;99.98
11223;BME280;5668;52.012;8.724;2023-01-10T02:37:39;99842.16;;;8.27;100.00
11223;BME280;5668;52.012;8.724;2023-01-10T02:40:18;99841.34;;;8.26;100.00
11223;BME280;5668;52.012;8.724;2023-01-10T02:42:51;99844.94;;;8.24;100.00
11223;BME280;5668;52.012;8.724;2023-01-10T02:45:27;99850.53;;;8.30;100.00
11223;BME280;5668;52.012;8.724;2023-01-10T02:48:00;99853.06;;;8.32;100.00
11223;BME280;5668;52.012;8.724;2023-01-10T02:50:43;99850.72;;;8.27;99.31
11223;BME280;5668;52.012;8.724;2023-01-10T02:53:14;99852.72;;;8.24;99.53
11223;BME280;5668;52.012;8.724;2023-01-10T02:55:58;99850.22;;;8.22;99.65
11223;BME280;5668;52.012;8.724;2023-01-10T02:58:39;99854.38;;;8.25;99.64
11223;BME280;5668;52.012;8.724;2023-01-10T03:01:14;99854.56;;;8.22;99.03
11223;BME280;5668;52.012;8.724;2023-01-10T03:03:50;99856.03;;;8.26;98.76
11223;BME280;5668;52.012;8.724;2023-01-10T03:06:26;99857.16;;;8.22;99.03
11223;BME280;5668;52.012;8.724;2023-01-10T03:09:03;99869.16;;;8.23;98.73
11223;BME280;5668;52.012;8.724;2023-01-10T03:11:35;99866.06;;;8.18;98.62
11223;BME280;5668;52.012;8.724;2023-01-10T03:14:16;99870.50;;;8.15;98.92
11223;BME280;5668;52.012;8.724;2023-01-10T03:16:50;99873.63;;;8.21;98.41
11223;BME280;5668;52.012;8.724;2023-01-10T03:19:23;99889.16;;;8.21;98.42
11223;BME280;5668;52.012;8.724;2023-01-10T03:21:55;99887.09;;;8.26;98.21
11223;BME280;5668;52.012;8.724;2023-01-10T03:24:28;99896.53;;;8.27;97.97
11223;BME280;5668;52.012;8.724;2023-01-10T03:27:00;99899.13;;;8.27;98.43
11223;BME280;5668;52.012;8.724;2023-01-10T03:29:36;99899.13;;;8.27;97.47
11223;BME280;5668;52.012;8.724;2023-01-10T03:32:10;99908.50;;;8.28;97.44
11223;BME280;5668;52.012;8.724;2023-01-10T03:34:40;99911.31;;;8.25;97.11
11223;BME280;5668;52.012;8.724;2023-01-10T03:37:12;99911.50;;;8.22;97.42
11223;BME280;5668;52.012;8.724;2023-01-10T03:39:49;99913.16;;;8.23;96.80
11223;BME280;5668;52.012;8.724;2023-01-10T03:42:22;99914.19;;;8.20;97.48
11223;BME280;5668;52.012;8.724;2023-01-10T03:45:00;99923.63;;;8.21;96.68
11223;BME280;5668;52.012;8.724;2023-01-10T03:47:32;99930.56;;;8.21;97.30
11223;BME280;5668;52.012;8.724;2023-01-10T03:50:07;99934.28;;;8.16;96.76
11223;BME280;5668;52.012;8.724;2023-01-10T03:52:36;99945.56;;;8.15;96.50
11223;BME280;5668;52.012;8.724;2023-01-10T03:55:07;99953.34;;;8.15;96.25
11223;BME280;5668;52.012;8.724;2023-01-10T03:57:36;99957.59;;;8.16;97.12
11223;BME280;5668;52.012;8.724;2023-01-10T04:00:04;99968.13;;;8.13;96.62
11223;BME280;5668;52.012;8.724;2023-01-10T04:02:32;99972.38;;;8.14;96.57
11223;BME280;5668;52.012;8.724;2023-01-10T04:04:59;99973.41;;;8.12;95.92
11223;BME280;5668;52.012;8.724;2023-01-10T04:07:27;99971.63;;;8.12;96.54
11223;BME280;5668;52.012;8.724;2023-01-10T04:09:54;99971.53;;;8.14;95.85
11223;BME280;5668;52.012;8.724;2023-01-10T04:12:22;99977.56;;;8.14;95.87
11223;BME280;5668;52.012;8.724;2023-01-10T04:14:49;99977.16;;;8.21;96.63
11223;BME280;5668;52.012;8.724;2023-01-10T04:17:17;99983.78;;;8.25;96.23
11223;BME280;5668;52.012;8.724;2023-01-10T04:19:45;99983.97;;;8.22;95.24
11223;BME280;5668;52.012;8.724;2023-01-10T04:22:12;99982.31;;;8.21;94.53
11223;BME280;5668;52.012;8.724;2023-01-10T04:24:41;99990.09;;;8.21;95.76
11223;BME280;5668;52.012;8.724;2023-01-10T04:27:09;100000.56;;;8.19;95.16
11223;BME280;5668;52.012;8.724;2023-01-10T04:29:36;100006.53;;;8.20;95.55
11223;BME280;5668;52.012;8.724;2023-01-10T04:32:03;100010.09;;;8.19;95.25
11223;BME280;5668;52.012;8.724;2023-01-10T04:34:31;100007.50;;;8.19;94.51
11223;BME280;5668;52.012;8.724;2023-01-10T04:36:58;100016.38;;;8.14;95.45
11223;BME280;5668;52.012;8.724;2023-01-10T04:39:25;100012.13;;;8.13;95.50
11223;BME280;5668;52.012;8.724;2023-01-10T04:41:54;100012.75;;;8.17;95.45
11223;BME280;5668;52.012;8.724;2023-01-10T04:44:21;100013.78;;;8.14;95.47
11223;BME280;5668;52.012;8.724;2023-01-10T04:46:48;100010.47;;;8.12;94.52
11223;BME280;5668;52.012;8.724;2023-01-10T04:49:15;100008.59;;;8.14;95.06
11223;BME280;5668;52.012;8.724;2023-01-10T04:51:43;100012.56;;;8.20;94.79
11223;BME280;5668;52.012;8.724;2023-01-10T04:54:10;100010.78;;;8.21;94.14
11223;BME280;5668;52.012;8.724;2023-01-10T04:56:37;100010.19;;;8.17;93.78
11223;BME280;5668;52.012;8.724;2023-01-10T04:59:07;100024.66;;;8.20;93.97
11223;BME280;5668;52.012;8.724;2023-01-10T05:01:34;100021.97;;;8.21;93.85
11223;BME280;5668;52.012;8.724;2023-01-10T05:04:04;100034.09;;;8.21;94.21
11223;BME280;5668;52.012;8.724;2023-01-10T05:06:32;100025.63;;;8.19;93.02
11223;BME280;5668;52.012;8.724;2023-01-10T05:08:59;100034.31;;;8.18;93.36
11223;BME280;5668;52.012;8.724;2023-01-10T05:11:26;100035.97;;;8.19;93.79
11223;BME280;5668;52.012;8.724;2023-01-10T05:13:53;100041.34;;;8.15;94.08
11223;BME280;5668;52.012;8.724;2023-01-10T05:16:22;100049.84;;;8.18;93.85
11223;BME280;5668;52.012;8.724;2023-01-10T05:18:50;100058.53;;;8.16;94.69
11223;BME280;5668;52.012;8.724;2023-01-10T05:21:17;100061.72;;;8.20;93.83
11223;BME280;5668;52.012;8.724;2023-01-10T05:23:45;100065.47;;;8.16;94.42
11223;BME280;5668;52.012;8.724;2023-01-10T05:26:13;100070.72;;;8.14;94.55
11223;BME280;5668;52.012;8.724;2023-01-10T05:28:41;100071.75;;;8.12;95.00
11223;BME280;5668;52.012;8.724;2023-01-10T05:31:10;100076.91;;;8.12;95.34
11223;BME280;5668;52.012;8.724;2023-01-10T05:33:42;100080.16;;;8.15;95.45
11223;BME280;5668;52.012;8.724;2023-01-10T05:36:09;100093.09;;;8.15;95.73
11223;BME280;5668;52.012;8.724;2023-01-10T05:38:36;100084.59;;;8.13;95.81
11223;BME280;5668;52.012;8.724;2023-01-10T05:41:04;100096.59;;;8.14;95.96
11223;BME280;5668;52.012;8.724;2023-01-10T05:43:31;100097.34;;;8.16;95.41
11223;BME280;5668;52.012;8.724;2023-01-10T05:45:58;100103.25;;;8.19;96.39
11223;BME280;5668;52.012;8.724;2023-01-10T05:48:26;100105.19;;;8.15;95.77
11223;BME280;5668;52.012;8.724;2023-01-10T05:50:54;100110.38;;;8.15;96.22
11223;BME280;5668;52.012;8.724;2023-01-10T05:53:22;100117.31;;;8.14;96.63
11223;BME280;5668;52.012;8.724;2023-01-10T05:55:54;100121.66;;;8.14;95.56
11223;BME280;5668;52.012;8.724;2023-01-10T05:58:22;100127.75;;;8.13;95.75
11223;BME280;5668;52.012;8.724;2023-01-10T06:00:49;100124.16;;;8.15;95.65
11223;BME280;5668;52.012;8.724;2023-01-10T06:03:18;100125.81;;;8.16;95.36
11223;BME280;5668;52.012;8.724;2023-01-10T06:05:45;100134.19;;;8.20;95.25
11223;BME280;5668;52.012;8.724;2023-01-10T06:08:14;100129.75;;;8.22;95.25
11223;BME280;5668;52.012;8.724;2023-01-10T06:10:41;100130.78;;;8.20;94.85
11223;BME280;5668;52.012;8.724;2023-01-10T06:13:08;100135.97;;;8.20;94.94
11223;BME280;5668;52.012;8.724;2023-01-10T06:15:37;100127.66;;;8.14;95.18
11223;BME280;5668;52.012;8.724;2023-01-10T06:18:04;100126.00;;;8.13;95.41
11223;BME280;5668;52.012;8.724;2023-01-10T06:20:31;100131.09;;;8.15;94.71
11223;BME280;5668;52.012;8.724;2023-01-10T06:22:59;100138.94;;;8.13;94.36
11223;BME280;5668;52.012;8.724;2023-01-10T06:25:31;100140.91;;;8.10;94.52
11223;BME280;5668;52.012;8.724;2023-01-10T06:27:58;100151.88;;;8.13;94.32
11223;BME280;5668;52.012;8.724;2023-01-10T06:30:26;100153.75;;;8.11;94.49
11223;BME280;5668;52.012;8.724;2023-01-10T06:32:53;100153.75;;;8.11;94.38
11223;BME280;5668;52.012;8.724;2023-01-10T06:35:20;100165.94;;;8.09;94.33
11223;BME280;5668;52.012;8.724;2023-01-10T06:37:47;100179.81;;;8.08;94.13
11223;BME280;5668;52.012;8.724;2023-01-10T06:40:16;100181.47;;;8.09;94.97
11223;BME280;5668;52.012;8.724;2023-01-10T06:42:45;100175.38;;;8.10;94.94
11223;BME280;5668;52.012;8.724;2023-01-10T06:45:12;100189.03;;;8.12;94.78
11223;BME280;5668;52.012;8.724;2023-01-10T06:47:39;100192.66;;;8.10;95.34
11223;BME280;5668;52.012;8.724;2023-01-10T06:50:08;100194.22;;;8.12;95.23
11223;BME280;5668;52.012;8.724;2023-01-10T06:52:37;100204.84;;;8.08;94.39
11223;BME280;5668;52.012;8.724;2023-01-10T06:55:05;100209.19;;;8.07;95.17
11223;BME280;5668;52.012;8.724;2023-01-10T06:57:33;100207.34;;;8.09;95.22
11223;BME280;5668;52.012;8.724;2023-01-10T07:00:02;100209.03;;;8.10;94.91
11223;BME280;5668;52.012;8.724;2023-01-10T07:02:30;100211.63;;;8.10;94.76
11223;BME280;5668;52.012;8.724;2023-01-10T07:04:57;100214.47;;;8.06;94.93
11223;BME280;5668;52.012;8.724;2023-01-10T07:07:24;100224.91;;;8.04;95.21
11223;BME280;5668;52.012;8.724;2023-01-10T07:09:51;100221.38;;;8.05;95.69
11223;BME280;5668;52.012;8.724;2023-01-10T07:12:18;100226.38;;;8.08;95.39
11223;BME280;5668;52.012;8.724;2023-01-10T07:14:46;100230.00;;;8.06;95.76
11223;BME280;5668;52.012;8.724;2023-01-10T07:17:14;100227.50;;;8.04;95.31
11223;BME280;5668;52.012;8.724;2023-01-10T07:19:41;100234.16;;;8.08;95.66
11223;BME280;5668;52.012;8.724;2023-01-10T07:22:08;100233.97;;;8.11;95.88
11223;BME280;5668;52.012;8.724;2023-01-10T07:24:37;100236.38;;;8.14;95.83
11223;BME280;5668;52.012;8.724;2023-01-10T07:27:04;100244.22;;;8.13;95.42
11223;BME280;5668;52.012;8.724;2023-01-10T07:29:31;100242.66;;;8.10;95.46
11223;BME280;5668;52.012;8.724;2023-01-10T07:31:58;100246.09;;;8.11;94.93
11223;BME280;5668;52.012;8.724;2023-01-10T07:34:27;100245.88;;;8.14;95.43
11223;BME280;5668;52.012;8.724;2023-01-10T07:36:54;100251.91;;;8.14;95.49
11223;BME280;5668;52.012;8.724;2023-01-10T07:39:21;100255.78;;;8.07;94.24
11223;BME280;5668;52.012;8.724;2023-01-10T07:41:49;100264.66;;;8.03;94.44
11223;BME280;5668;52.012;8.724;2023-01-10T07:44:17;100272.50;;;8.02;95.61
11223;BME280;5668;52.012;8.724;2023-01-10T07:46:44;100275.34;;;7.97;94.97
11223;BME280;5668;52.012;8.724;2023-01-10T07:49:12;100267.06;;;7.92;95.05
11223;BME280;5668;52.012;8.724;2023-01-10T07:51:40;100277.22;;;7.95;96.53
11223;BME280;5668;52.012;8.724;2023-01-10T07:54:08;100268.34;;;7.99;95.72
11223;BME280;5668;52.012;8.724;2023-01-10T07:56:35;100271.59;;;8.03;95.78
11223;BME280;5668;52.012;8.724;2023-01-10T07:59:02;100272.50;;;8.02;95.83
11223;BME280;5668;52.012;8.724;2023-01-10T08:01:29;100294.97;;;8.01;95.68
11223;BME280;5668;52.012;8.724;2023-01-10T08:03:57;100275.19;;;8.00;95.47
11223;BME280;5668;52.012;8.724;2023-01-10T08:06:24;100273.34;;;8.02;95.51
11223;BME280;5668;52.012;8.724;2023-01-10T08:08:53;100272.50;;;8.02;95.20
11223;BME280;5668;52.012;8.724;2023-01-10T08:11:20;100275.34;;;7.97;96.10
11223;BME280;5668;52.012;8.724;2023-01-10T08:13:47;100286.75;;;7.95;95.23
11223;BME280;5668;52.012;8.724;2023-01-10T08:16:14;100290.16;;;7.95;95.31
11223;BME280;5668;52.012;8.724;2023-01-10T08:18:42;100293.84;;;7.91;96.15
11223;BME280;5668;52.012;8.724;2023-01-10T08:21:09;100296.25;;;7.94;96.00
11223;BME280;5668;52.012;8.724;2023-01-10T08:23:36;100294.59;;;7.93;95.71
11223;BME280;5668;52.012;8.724;2023-01-10T08:26:05;100293.66;;;7.94;95.94
11223;BME280;5668;52.012;8.724;2023-01-10T08:28:32;100300.44;;;7.97;95.55
11223;BME280;5668;52.012;8.724;2023-01-10T08:31:04;100289.25;;;7.96;95.81
11223;BME280;5668;52.012;8.724;2023-01-10T08:33:32;100312.53;;;7.96;96.42
11223;BME280;5668;52.012;8.724;2023-01-10T08:35:59;100310.66;;;7.98;95.74
11223;BME280;5668;52.012;8.724;2023-01-10T08:38:27;100315.75;;;8.00;96.19
11223;BME280;5668;52.012;8.724;2023-01-10T08:40:55;100310.78;;;7.97;96.28
11223;BME280;5668;52.012;8.724;2023-01-10T08:43:24;100320.09;;;7.99;96.56
11223;BME280;5668;52.012;8.724;2023-01-10T08:45:52;100324.28;;;8.02;95.40
11223;BME280;5668;52.012;8.724;2023-01-10T08:48:19;100326.19;;;7.98;96.22
11223;BME280;5668;52.012;8.724;2023-01-10T08:50:46;100328.59;;;8.01;96.35
11223;BME280;5668;52.012;8.724;2023-01-10T08:53:13;100333.59;;;8.04;96.08
11223;BME280;5668;52.012;8.724;2023-01-10T08:55:40;100337.13;;;8.03;96.07
11223;BME280;5668;52.012;8.724;2023-01-10T08:58:08;100343.22;;;8.02;95.89
11223;BME280;5668;52.012;8.724;2023-01-10T09:00:37;100345.59;;;8.05;96.25
11223;BME280;5668;52.012;8.724;2023-01-10T09:03:05;100343.59;;;8.10;96.01
11223;BME280;5668;52.012;8.724;2023-01-10T09:05:32;100346.19;;;8.10;96.33
11223;BME280;5668;52.012;8.724;2023-01-10T09:08:01;100352.75;;;8.16;96.48
11223;BME280;5668;52.012;8.724;2023-01-10T09:10:28;100343.22;;;8.16;96.25
11223;BME280;5668;52.012;8.724;2023-01-10T09:12:57;100344.81;;;8.19;95.87
11223;BME280;5668;52.012;8.724;2023-01-10T09:15:28;100353.59;;;8.16;95.93
11223;BME280;5668;52.012;8.724;2023-01-10T09:17:58;100350.25;;;8.14;95.80
11223;BME280;5668;52.012;8.724;2023-01-10T09:20:27;100356.34;;;8.13;95.55
11223;BME280;5668;52.012;8.724;2023-01-10T09:22:55;100351.09;;;8.15;95.75
11223;BME280;5668;52.012;8.724;2023-01-10T09:25:23;100359.59;;;8.17;95.82
11223;BME280;5668;52.012;8.724;2023-01-10T09:27:55;100349.25;;;8.17;96.13
11223;BME280;5668;52.012;8.724;2023-01-10T09:30:23;100343.16;;;8.18;96.06
11223;BME280;5668;52.012;8.724;2023-01-10T09:32:51;100354.22;;;8.20;95.78
11223;BME280;5668;52.012;8.724;2023-01-10T09:35:20;100350.06;;;8.18;96.90
11223;BME280;5668;52.012;8.724;2023-01-10T09:37:47;100352.66;;;8.18;96.10
11223;BME280;5668;52.012;8.724;2023-01-10T09:40:16;100355.88;;;8.21;96.95
11223;BME280;5668;52.012;8.724;2023-01-10T09:42:57;100357.47;;;8.24;96.76
11223;BME280;5668;52.012;8.724;2023-01-10T09:45:34;100362.56;;;8.25;96.18
11223;BME280;5668;52.012;8.724;2023-01-10T09:48:05;100362.47;;;8.27;96.65
11223;BME280;5668;52.012;8.724;2023-01-10T09:50:46;100374.59;;;8.26;96.11
11223;BME280;5668;52.012;8.724;2023-01-10T09:53:20;100378.00;;;8.27;96.49
11223;BME280;5668;52.012;8.724;2023-01-10T09:55:52;100380.41;;;8.30;97.39
11223;BME280;5668;52.012;8.724;2023-01-10T09:58:23;100387.28;;;8.31;96.80
11223;BME280;5668;52.012;8.724;2023-01-10T10:00:55;100393.94;;;8.35;97.47
11223;BME280;5668;52.012;8.724;2023-01-10T10:03:29;100397.09;;;8.40;97.20
11223;BME280;5668;52.012;8.724;2023-01-10T10:05:58;100387.59;;;8.40;96.66
11223;BME280;5668;52.012;8.724;2023-01-10T10:08:26;100387.38;;;8.43;96.43
11223;BME280;5668;52.012;8.724;2023-01-10T10:11:02;100394.13;;;8.46;95.77
11223;BME280;5668;52.012;8.724;2023-01-10T10:13:43;100382.94;;;8.45;95.72
11223;BME280;5668;52.012;8.724;2023-01-10T10:16:27;100392.31;;;8.48;95.76
11223;BME280;5668;52.012;8.724;2023-01-10T10:19:04;100387.22;;;8.46;96.15
11223;BME280;5668;52.012;8.724;2023-01-10T10:21:44;100387.13;;;8.48;95.24
11223;BME280;5668;52.012;8.724;2023-01-10T10:24:23;100391.56;;;8.46;95.27
11223;BME280;5668;52.012;8.724;2023-01-10T10:26:57;100393.31;;;8.45;95.02
11223;BME280;5668;52.012;8.724;2023-01-10T10:29:49;100388.03;;;8.47;95.24
11223;BME280;5668;52.012;8.724;2023-01-10T10:35:23;100383.59;;;8.49;95.95
11223;BME280;5668;52.012;8.724;2023-01-10T10:37:57;100386.91;;;8.51;94.99
11223;BME280;5668;52.012;8.724;2023-01-10T10:40:27;100386.75;;;8.54;95.11
11223;BME280;5668;52.012;8.724;2023-01-10T10:42:59;100384.69;;;8.59;96.15
11223;BME280;5668;52.012;8.724;2023-01-10T10:45:35;100389.88;;;8.59;95.39
11223;BME280;5668;52.012;8.724;2023-01-10T10:48:12;100388.78;;;8.63;95.35
11223;BME280;5668;52.012;8.724;2023-01-10T10:50:49;100392.09;;;8.65;95.38
11223;BME280;5668;52.012;8.724;2023-01-10T10:53:18;100381.56;;;8.68;95.43
11223;BME280;5668;52.012;8.724;2023-01-10T10:55:46;100383.22;;;8.69;95.31
11223;BME280;5668;52.012;8.724;2023-01-10T10:58:14;100382.31;;;8.70;94.48
11223;BME280;5668;52.012;8.724;2023-01-10T11:00:41;100385.63;;;8.72;94.63
11223;BME280;5668;52.012;8.724;2023-01-10T11:03:21;100389.16;;;8.71;94.32
11223;BME280;5668;52.012;8.724;2023-01-10T11:05:50;100387.28;;;8.73;94.59
11223;BME280;5668;52.012;8.724;2023-01-10T11:08:19;100386.38;;;8.74;94.83
11223;BME280;5668;52.012;8.724;2023-01-10T11:10:51;100380.16;;;8.77;93.72
11223;BME280;5668;52.012;8.724;2023-01-10T11:13:37;100390.44;;;8.78;93.55
11223;BME280;5668;52.012;8.724;2023-01-10T11:16:07;100387.28;;;8.73;94.32
11223;BME280;5668;52.012;8.724;2023-01-10T11:18:34;100370.81;;;8.74;94.09
11223;BME280;5668;52.012;8.724;2023-01-10T11:21:05;100376.66;;;8.78;94.37
11223;BME280;5668;52.012;8.724;2023-01-10T11:23:40;100373.97;;;8.79;93.23
11223;BME280;5668;52.012;8.724;2023-01-10T11:26:20;100363.25;;;8.71;94.18
11223;BME280;5668;52.012;8.724;2023-01-10T11:28:51;100370.81;;;8.74;94.02
11223;BME280;5668;52.012;8.724;2023-01-10T11:31:26;100357.78;;;8.76;93.24
11223;BME280;5668;52.012;8.724;2023-01-10T11:33:54;100354.25;;;8.77;93.20
11223;BME280;5668;52.012;8.724;2023-01-10T11:36:22;100361.38;;;8.73;93.72
11223;BME280;5668;52.012;8.724;2023-01-10T11:38:59;100362.13;;;8.75;93.42
11223;BME280;5668;52.012;8.724;2023-01-10T11:41:27;100361.13;;;8.78;92.99
11223;BME280;5668;52.012;8.724;2023-01-10T11:44:15;100361.03;;;8.79;93.47
11223;BME280;5668;52.012;8.724;2023-01-10T11:46:44;100364.63;;;8.77;93.06
11223;BME280;5668;52.012;8.724;2023-01-10T11:49:14;100356.66;;;8.80;93.27
11223;BME280;5668;52.012;8.724;2023-01-10T11:51:47;100364.53;;;8.78;93.24
11223;BME280;5668;52.012;8.724;2023-01-10T11:54:19;100362.66;;;8.80;93.21
11223;BME280;5668;52.012;8.724;2023-01-10T11:56:55;100356.75;;;8.78;91.92
11223;BME280;5668;52.012;8.724;2023-01-10T11:59:23;100355.09;;;8.77;92.09
11223;BME280;5668;52.012;8.724;2023-01-10T12:01:55;100345.56;;;8.78;91.95
11223;BME280;5668;52.012;8.724;2023-01-10T12:04:25;100353.97;;;8.81;91.62
11223;BME280;5668;52.012;8.724;2023-01-10T12:06:56;100354.81;;;8.82;91.92
11223;BME280;5668;52.012;8.724;2023-01-10T12:09:38;100343.50;;;8.83;92.00
11223;BME280;5668;52.012;8.724;2023-01-10T12:12:16;100350.06;;;8.88;91.21
11223;BME280;5668;52.012;8.724;2023-01-10T12:14:44;100344.69;;;8.91;91.54
11223;BME280;5668;52.012;8.724;2023-01-10T12:17:20;100348.97;;;8.92;90.97
11223;BME280;5668;52.012;8.724;2023-01-10T12:19:48;100334.25;;;8.93;90.45
11223;BME280;5668;52.012;8.724;2023-01-10T12:22:18;100339.13;;;8.98;91.17
11223;BME280;5668;52.012;8.724;2023-01-10T12:24:49;100352.84;;;9.00;90.62
11223;BME280;5668;52.012;8.724;2023-01-10T12:27:19;100349.19;;;9.02;90.44
11223;BME280;5668;52.012;8.724;2023-01-10T12:29:52;100350.03;;;9.03;90.25
11223;BME280;5668;52.012;8.724;2023-01-10T12:32:29;100356.88;;;9.04;90.45
11223;BME280;5668;52.012;8.724;2023-01-10T12:35:00;100355.22;;;9.03;89.60
11223;BME280;5668;52.012;8.724;2023-01-10T12:37:33;100357.94;;;9.01;89.41
11223;BME280;5668;52.012;8.724;2023-01-10T12:40:13;100356.25;;;9.00;89.13
11223;BME280;5668;52.012;8.724;2023-01-10T12:42:51;100364.75;;;9.02;89.28
11223;BME280;5668;52.012;8.724;2023-01-10T12:45:41;100364.97;;;8.99;88.83
11223;BME280;5668;52.012;8.724;2023-01-10T12:48:16;100365.78;;;9.00;89.08
11223;BME280;5668;52.012;8.724;2023-01-10T12:50:50;100356.88;;;9.04;89.71
11223;BME280;5668;52.012;8.724;2023-01-10T12:53:28;100363.56;;;9.08;89.16
11223;BME280;5668;52.012;8.724;2023-01-10T12:55:59;100366.31;;;9.05;88.63
11223;BME280;5668;52.012;8.724;2023-01-10T12:58:36;100366.31;;;9.05;88.61
11223;BME280;5668;52.012;8.724;2023-01-10T13:01:06;100360.97;;;9.08;88.61
11223;BME280;5668;52.012;8.724;2023-01-10T13:03:34;100360.41;;;9.03;88.39
11223;BME280;5668;52.012;8.724;2023-01-10T13:06:02;100362.06;;;9.04;88.91
11223;BME280;5668;52.012;8.724;2023-01-10T13:08:32;100354.84;;;9.09;88.79
11223;BME280;5668;52.012;8.724;2023-01-10T13:11:02;100356.41;;;9.11;88.53
11223;BME280;5668;52.012;8.724;2023-01-10T13:13:34;100347.06;;;9.09;88.20
11223;BME280;5668;52.012;8.724;2023-01-10T13:16:21;100339.09;;;9.12;88.38
11223;BME280;5668;52.012;8.724;2023-01-10T13:19:02;100338.47;;;9.08;87.22
11223;BME280;5668;52.012;8.724;2023-01-10T13:21:32;100323.94;;;9.06;87.54
11223;BME280;5668;52.012;8.724;2023-01-10T13:24:02;100328.19;;;9.07;87.77
11223;BME280;5668;52.012;8.724;2023-01-10T13:26:49;100333.16;;;9.10;86.96
11223;BME280;5668;52.012;8.724;2023-01-10T13:29:20;100315.97;;;9.09;87.48
11223;BME280;5668;52.012;8.724;2023-01-10T13:31:47;100321.53;;;9.03;86.38
11223;BME280;5668;52.012;8.724;2023-01-10T13:34:22;100313.97;;;9.00;85.58
11223;BME280;5668;52.012;8.724;2023-01-10T13:36:55;100315.41;;;9.04;86.90
11223;BME280;5668;52.012;8.724;2023-01-10T13:39:26;100317.91;;;9.05;86.84